sensor_id;sensor_type;location;lat;lon;timestamp;temperature;humidity
22984;DHT22;11658;48.908;9.140;2023-03-01T04:00:47;-0.60;99.90
22984;DHT22;11658;48.908;9.140;2023-03-01T04:03:15;-0.50;99.90
22984;DHT22;11658;48.908;9.140;2023-03-01T04:05:41;-0.50;99.90
22984;DHT22;11658;48.908;9.140;2023-03-01T04:08:08;-0.40;99.90
22984;DHT22;11658;48.908;9.140;2023-03-01T04:10:45;-0.40;99.90
22984;DHT22;11658;48.908;9.140;2023-03-01T04:13:13;-0.40;99.90
22984;DHT22;11658;48.908;9.140;2023-03-01T04:15:39;-0.40;99.90
22984;DHT22;11658;48.908;9.140;2023-03-01T04:18:06;-0.40;99.90
22984;DHT22;11658;48.908;9.140;2023-03-01T04:20:34;-0.40;99.90
22984;DHT22;11658;48.908;9.140;2023-03-01T04:23:15;-0.30;99.90
22984;DHT22;11658;48.908;9.140;2023-03-01T04:25:55;-0.30;99.90
22984;DHT22;11658;48.908;9.140;2023-03-01T04:28:32;-0.40;99.90
22984;DHT22;11658;48.908;9.140;2023-03-01T04:31:03;-0.30;99.90
22984;DHT22;11658;48.908;9.140;2023-03-01T04:33:41;-0.20;99.90
22984;DHT22;11658;48.908;9.140;2023-03-01T04:36:08;-0.20;99.90
22984;DHT22;11658;48.908;9.140;2023-03-01T04:38:35;-0.20;99.90
22984;DHT22;11658;48.908;9.140;2023-03-01T04:41:04;-0.20;99.90
22984;DHT22;11658;48.908;9.140;2023-03-01T04:43:29;-0.10;99.90
22984;DHT22;11658;48.908;9.140;2023-03-01T04:46:00;-0.10;99.90
22984;DHT22;11658;48.908;9.140;2023-03-01T04:48:28;-0.10;99.90
22984;DHT22;11658;48.908;9.140;2023-03-01T04:50:53;-0.10;99.90
22984;DHT22;11658;48.908;9.140;2023-03-01T04:53:19;-0.10;99.90
22984;DHT22;11658;48.908;9.140;2023-03-01T04:55:44;-0.10;99.90
22984;DHT22;11658;48.908;9.140;2023-03-01T04:58:10;-0.30;99.90
22984;DHT22;11658;48.908;9.140;2023-03-01T05:00:36;-0.30;99.90
22984;DHT22;11658;48.908;9.140;2023-03-01T05:03:01;-0.30;99.90
22984;DHT22;11658;48.908;9.140;2023-03-01T05:05:30;-0.30;99.90
22984;DHT22;11658;48.908;9.140;2023-03-01T05:07:59;-0.30;99.90
22984;DHT22;11658;48.908;9.140;2023-03-01T05:10:27;-0.40;99.90
22984;DHT22;11658;48.908;9.140;2023-03-01T05:12:55;-0.40;99.90
22984;DHT22;11658;48.908;9.140;2023-03-01T05:15:23;-0.40;99.90
22984;DHT22;11658;48.908;9.140;2023-03-01T05:17:51;-0.40;99.90
22984;DHT22;11658;48.908;9.140;2023-03-01T05:20:17;-0.40;99.90
22984;DHT22;11658;48.908;9.140;2023-03-01T05:22:42;-0.50;99.90
22984;DHT22;11658;48.908;9.140;2023-03-01T05:25:08;-0.60;99.90
22984;DHT22;11658;48.908;9.140;2023-03-01T05:27:34;-0.50;99.90
22984;DHT22;11658;48.908;9.140;2023-03-01T05:30:00;-0.50;99.90
22984;DHT22;11658;48.908;9.140;2023-03-01T05:32:39;-0.50;99.90
22984;DHT22;11658;48.908;9.140;2023-03-01T05:35:05;-0.60;99.90
22984;DHT22;11658;48.908;9.140;2023-03-01T05:37:31;-0.60;99.90
22984;DHT22;11658;48.908;9.140;2023-03-01T05:39:56;-0.60;99.90
22984;DHT22;11658;48.908;9.140;2023-03-01T05:42:22;-0.70;99.90
22984;DHT22;11658;48.908;9.140;2023-03-01T05:44:48;-0.80;99.90
22984;DHT22;11658;48.908;9.140;2023-03-01T05:47:13;-0.80;99.90
22984;DHT22;11658;48.908;9.140;2023-03-01T05:49:39;-0.90;99.90
22984;DHT22;11658;48.908;9.140;2023-03-01T05:52:04;-0.90;99.90
22984;DHT22;11658;48.908;9.140;2023-03-01T05:54:30;-1.00;99.90
22984;DHT22;11658;48.908;9.140;2023-03-01T05:56:56;-1.00;99.90
22984;DHT22;11658;48.908;9.140;2023-03-01T05:59:21;-1.00;99.90
22984;DHT22;11658;48.908;9.140;2023-03-01T06:01:47;-1.00;99.90
22984;DHT22;11658;48.908;9.140;2023-03-01T06:04:12;-1.00;99.90
22984;DHT22;11658;48.908;9.140;2023-03-01T06:06:38;-0.90;99.90
22984;DHT22;11658;48.908;9.140;2023-03-01T06:09:05;-0.90;99.90
22984;DHT22;11658;48.908;9.140;2023-03-01T06:11:33;-0.80;99.90
22984;DHT22;11658;48.908;9.140;2023-03-01T06:13:59;-0.70;99.90
22984;DHT22;11658;48.908;9.140;2023-03-01T06:16:25;-0.70;99.90
22984;DHT22;11658;48.908;9.140;2023-03-01T06:18:50;-0.60;99.90
22984;DHT22;11658;48.908;9.140;2023-03-01T06:21:16;-0.70;99.90
22984;DHT22;11658;48.908;9.140;2023-03-01T06:23:41;-0.80;99.90
22984;DHT22;11658;48.908;9.140;2023-03-01T06:26:08;-0.80;99.90
22984;DHT22;11658;48.908;9.140;2023-03-01T06:28:34;-0.80;99.90
22984;DHT22;11658;48.908;9.140;2023-03-01T06:30:59;-0.80;99.90
22984;DHT22;11658;48.908;9.140;2023-03-01T06:33:25;-0.80;99.90
22984;DHT22;11658;48.908;9.140;2023-03-01T06:35:54;-0.70;99.90
22984;DHT22;11658;48.908;9.140;2023-03-01T06:38:19;-0.60;99.90
22984;DHT22;11658;48.908;9.140;2023-03-01T06:40:51;-0.70;99.90
22984;DHT22;11658;48.908;9.140;2023-03-01T06:43:17;-0.80;99.90
22984;DHT22;11658;48.908;9.140;2023-03-01T06:45:43;-0.70;99.90
22984;DHT22;11658;48.908;9.140;2023-03-01T06:48:08;-0.50;99.90
22984;DHT22;11658;48.908;9.140;2023-03-01T06:50:35;-0.50;99.90
22984;DHT22;11658;48.908;9.140;2023-03-01T06:53:01;-0.60;99.90
22984;DHT22;11658;48.908;9.140;2023-03-01T06:55:26;-0.60;99.90
22984;DHT22;11658;48.908;9.140;2023-03-01T06:58:00;-0.80;99.90
22984;DHT22;11658;48.908;9.140;2023-03-01T07:00:26;-0.90;99.90
22984;DHT22;11658;48.908;9.140;2023-03-01T07:02:53;-1.00;99.90
22984;DHT22;11658;48.908;9.140;2023-03-01T07:05:19;-1.10;99.90
22984;DHT22;11658;48.908;9.140;2023-03-01T07:07:45;-1.10;99.90
22984;DHT22;11658;48.908;9.140;2023-03-01T07:10:11;-1.10;99.90
22984;DHT22;11658;48.908;9.140;2023-03-01T07:12:37;-1.00;99.90
22984;DHT22;11658;48.908;9.140;2023-03-01T07:15:03;-1.00;99.90
22984;DHT22;11658;48.908;9.140;2023-03-01T07:17:29;-1.00;99.90
22984;DHT22;11658;48.908;9.140;2023-03-01T07:19:54;-1.00;99.90
22984;DHT22;11658;48.908;9.140;2023-03-01T07:22:20;-1.00;99.90
22984;DHT22;11658;48.908;9.140;2023-03-01T07:24:46;-0.90;99.90
22984;DHT22;11658;48.908;9.140;2023-03-01T07:27:11;-0.90;99.90
22984;DHT22;11658;48.908;9.140;2023-03-01T07:29:37;-0.80;99.90
22984;DHT22;11658;48.908;9.140;2023-03-01T07:32:04;-0.70;99.90
22984;DHT22;11658;48.908;9.140;2023-03-01T07:34:30;-0.60;99.90
22984;DHT22;11658;48.908;9.140;2023-03-01T07:36:55;-0.50;99.90
22984;DHT22;11658;48.908;9.140;2023-03-01T07:39:21;-0.40;99.90
22984;DHT22;11658;48.908;9.140;2023-03-01T07:41:48;-0.40;99.90
22984;DHT22;11658;48.908;9.140;2023-03-01T07:44:14;-0.30;99.90
22984;DHT22;11658;48.908;9.140;2023-03-01T07:46:40;-0.30;99.90
22984;DHT22;11658;48.908;9.140;2023-03-01T07:49:06;-0.10;99.90
22984;DHT22;11658;48.908;9.140;2023-03-01T07:51:32;0.10;99.90
22984;DHT22;11658;48.908;9.140;2023-03-01T07:53:57;0.00;99.90
22984;DHT22;11658;48.908;9.140;2023-03-01T07:56:23;0.00;99.90
22984;DHT22;11658;48.908;9.140;2023-03-01T07:58:49;0.10;99.90
22984;DHT22;11658;48.908;9.140;2023-03-01T08:01:17;0.20;99.90
22984;DHT22;11658;48.908;9.140;2023-03-01T08:03:43;0.30;99.90
22984;DHT22;11658;48.908;9.140;2023-03-01T08:06:10;0.40;99.90
22984;DHT22;11658;48.908;9.140;2023-03-01T08:08:36;0.60;99.90
22984;DHT22;11658;48.908;9.140;2023-03-01T08:11:03;0.70;99.90
22984;DHT22;11658;48.908;9.140;2023-03-01T08:13:29;0.60;99.90
22984;DHT22;11658;48.908;9.140;2023-03-01T08:16:07;0.60;99.90
22984;DHT22;11658;48.908;9.140;2023-03-01T08:18:33;0.60;99.90
22984;DHT22;11658;48.908;9.140;2023-03-01T08:21:03;0.80;99.90
22984;DHT22;11658;48.908;9.140;2023-03-01T08:23:29;0.80;99.90
22984;DHT22;11658;48.908;9.140;2023-03-01T08:26:07;1.00;99.90
22984;DHT22;11658;48.908;9.140;2023-03-01T08:28:33;1.10;99.90
22984;DHT22;11658;48.908;9.140;2023-03-01T08:30:59;1.00;99.90
22984;DHT22;11658;48.908;9.140;2023-03-01T08:33:24;1.00;99.90
22984;DHT22;11658;48.908;9.140;2023-03-01T08:35:50;1.00;99.90
22984;DHT22;11658;48.908;9.140;2023-03-01T08:38:15;1.10;99.90
22984;DHT22;11658;48.908;9.140;2023-03-01T08:40:41;1.10;99.90
22984;DHT22;11658;48.908;9.140;2023-03-01T08:43:07;1.10;99.90
22984;DHT22;11658;48.908;9.140;2023-03-01T08:45:32;1.30;99.90
22984;DHT22;11658;48.908;9.140;2023-03-01T08:47:58;1.30;99.90
22984;DHT22;11658;48.908;9.140;2023-03-01T08:50:24;1.20;99.90
22984;DHT22;11658;48.908;9.140;2023-03-01T08:52:50;1.20;99.90
22984;DHT22;11658;48.908;9.140;2023-03-01T08:55:16;1.10;99.90
22984;DHT22;11658;48.908;9.140;2023-03-01T08:57:43;1.10;99.90
22984;DHT22;11658;48.908;9.140;2023-03-01T09:00:09;1.30;99.90
22984;DHT22;11658;48.908;9.140;2023-03-01T09:02:36;1.50;99.90
22984;DHT22;11658;48.908;9.140;2023-03-01T09:05:02;1.60;99.90
22984;DHT22;11658;48.908;9.140;2023-03-01T09:07:28;1.60;99.90
22984;DHT22;11658;48.908;9.140;2023-03-01T09:09:54;1.70;99.90
22984;DHT22;11658;48.908;9.140;2023-03-01T09:12:20;1.90;99.90
22984;DHT22;11658;48.908;9.140;2023-03-01T09:14:46;2.00;99.90
22984;DHT22;11658;48.908;9.140;2023-03-01T09:17:11;2.10;99.90
22984;DHT22;11658;48.908;9.140;2023-03-01T09:19:37;2.20;99.90
22984;DHT22;11658;48.908;9.140;2023-03-01T09:22:04;2.40;99.90
22984;DHT22;11658;48.908;9.140;2023-03-01T09:24:29;2.50;99.90
22984;DHT22;11658;48.908;9.140;2023-03-01T09:26:56;2.80;99.90
22984;DHT22;11658;48.908;9.140;2023-03-01T09:29:22;2.70;99.90
22984;DHT22;11658;48.908;9.140;2023-03-01T09:31:48;2.80;99.90
22984;DHT22;11658;48.908;9.140;2023-03-01T09:34:13;2.80;99.90
22984;DHT22;11658;48.908;9.140;2023-03-01T09:36:41;2.70;99.90
22984;DHT22;11658;48.908;9.140;2023-03-01T09:39:07;2.60;99.90
22984;DHT22;11658;48.908;9.140;2023-03-01T09:41:57;2.80;99.90
22984;DHT22;11658;48.908;9.140;2023-03-01T09:46:51;2.80;99.90
22984;DHT22;11658;48.908;9.140;2023-03-01T09:49:29;2.80;99.90
22984;DHT22;11658;48.908;9.140;2023-03-01T09:52:12;2.70;99.90
22984;DHT22;11658;48.908;9.140;2023-03-01T09:54:38;2.70;99.90
22984;DHT22;11658;48.908;9.140;2023-03-01T10:02:24;3.00;99.90
22984;DHT22;11658;48.908;9.140;2023-03-01T10:04:59;3.30;99.90
22984;DHT22;11658;48.908;9.140;2023-03-01T10:07:54;3.60;99.90
22984;DHT22;11658;48.908;9.140;2023-03-01T10:10:35;3.80;99.90
22984;DHT22;11658;48.908;9.140;2023-03-01T10:13:13;3.80;99.90
22984;DHT22;11658;48.908;9.140;2023-03-01T10:15:44;4.00;99.90
22984;DHT22;11658;48.908;9.140;2023-03-01T10:18:18;4.10;99.90
22984;DHT22;11658;48.908;9.140;2023-03-01T10:23:37;4.00;99.90
22984;DHT22;11658;48.908;9.140;2023-03-01T10:26:16;4.00;99.90
22984;DHT22;11658;48.908;9.140;2023-03-01T10:29:02;3.90;99.90
22984;DHT22;11658;48.908;9.140;2023-03-01T10:34:07;4.00;99.90
22984;DHT22;11658;48.908;9.140;2023-03-01T10:36:33;4.00;99.90
22984;DHT22;11658;48.908;9.140;2023-03-01T10:39:11;4.10;99.90
22984;DHT22;11658;48.908;9.140;2023-03-01T10:41:47;4.20;99.90
22984;DHT22;11658;48.908;9.140;2023-03-01T10:44:42;4.20;99.90
22984;DHT22;11658;48.908;9.140;2023-03-01T10:47:28;4.30;99.90
22984;DHT22;11658;48.908;9.140;2023-03-01T10:49:54;4.30;99.90
22984;DHT22;11658;48.908;9.140;2023-03-01T10:52:24;4.40;99.90
22984;DHT22;11658;48.908;9.140;2023-03-01T10:54:58;4.40;99.90
22984;DHT22;11658;48.908;9.140;2023-03-01T10:57:29;4.40;99.90
22984;DHT22;11658;48.908;9.140;2023-03-01T11:00:20;4.50;99.90
22984;DHT22;11658;48.908;9.140;2023-03-01T11:05:26;4.50;99.90
22984;DHT22;11658;48.908;9.140;2023-03-01T11:07:58;4.60;99.90
22984;DHT22;11658;48.908;9.140;2023-03-01T11:10:26;4.70;99.90
22984;DHT22;11658;48.908;9.140;2023-03-01T11:12:53;5.00;99.90
22984;DHT22;11658;48.908;9.140;2023-03-01T11:15:27;5.00;99.90
22984;DHT22;11658;48.908;9.140;2023-03-01T11:17:54;5.00;99.90
22984;DHT22;11658;48.908;9.140;2023-03-01T11:22:54;5.20;99.90
22984;DHT22;11658;48.908;9.140;2023-03-01T11:25:25;5.20;99.90
22984;DHT22;11658;48.908;9.140;2023-03-01T11:27:52;5.20;99.90
22984;DHT22;11658;48.908;9.140;2023-03-01T11:30:23;5.30;99.90
22984;DHT22;11658;48.908;9.140;2023-03-01T11:35:23;5.40;99.90
22984;DHT22;11658;48.908;9.140;2023-03-01T11:43:19;6.10;99.90
22984;DHT22;11658;48.908;9.140;2023-03-01T11:46:32;5.90;99.90
22984;DHT22;11658;48.908;9.140;2023-03-01T11:51:59;5.50;99.90
22984;DHT22;11658;48.908;9.140;2023-03-01T11:54:26;5.60;99.90
22984;DHT22;11658;48.908;9.140;2023-03-01T11:57:01;5.70;99.90
22984;DHT22;11658;48.908;9.140;2023-03-01T12:05:24;6.00;99.90
22984;DHT22;11658;48.908;9.140;2023-03-01T12:10:49;6.00;99.90
22984;DHT22;11658;48.908;9.140;2023-03-01T12:16:20;6.20;99.90
22984;DHT22;11658;48.908;9.140;2023-03-01T12:21:59;6.60;99.90
22984;DHT22;11658;48.908;9.140;2023-03-01T12:42:16;6.80;99.90
22984;DHT22;11658;48.908;9.140;2023-03-01T12:50:52;6.60;99.90
22984;DHT22;11658;48.908;9.140;2023-03-01T12:53:29;6.60;99.90
22984;DHT22;11658;48.908;9.140;2023-03-01T12:56:06;6.70;99.90
22984;DHT22;11658;48.908;9.140;2023-03-01T12:58:45;6.70;99.90
22984;DHT22;11658;48.908;9.140;2023-03-01T13:06:52;6.90;99.90
22984;DHT22;11658;48.908;9.140;2023-03-01T13:12:01;7.30;99.90
22984;DHT22;11658;48.908;9.140;2023-03-01T13:16:58;7.30;99.90
22984;DHT22;11658;48.908;9.140;2023-03-01T13:19:28;7.20;99.90
22984;DHT22;11658;48.908;9.140;2023-03-01T13:22:32;7.00;99.90
22984;DHT22;11658;48.908;9.140;2023-03-01T13:25:13;7.10;99.90
22984;DHT22;11658;48.908;9.140;2023-03-01T13:27:39;7.10;99.90
22984;DHT22;11658;48.908;9.140;2023-03-01T13:35:51;7.10;99.90
22984;DHT22;11658;48.908;9.140;2023-03-01T13:41:02;7.40;99.90
22984;DHT22;11658;48.908;9.140;2023-03-01T13:43:40;7.20;99.90
22984;DHT22;11658;48.908;9.140;2023-03-01T13:46:23;7.10;99.90
22984;DHT22;11658;48.908;9.140;2023-03-01T13:48:55;7.10;99.90
22984;DHT22;11658;48.908;9.140;2023-03-01T13:51:25;7.20;99.90
22984;DHT22;11658;48.908;9.140;2023-03-01T13:53:52;7.30;99.90
22984;DHT22;11658;48.908;9.140;2023-03-01T13:56:25;7.20;99.90
22984;DHT22;11658;48.908;9.140;2023-03-01T13:59:02;7.10;99.90
22984;DHT22;11658;48.908;9.140;2023-03-01T14:01:32;7.30;99.90
22984;DHT22;11658;48.908;9.140;2023-03-01T14:03:59;7.20;99.90
22984;DHT22;11658;48.908;9.140;2023-03-01T14:06:27;8.00;99.90
22984;DHT22;11658;48.908;9.140;2023-03-01T14:09:22;7.50;99.90
22984;DHT22;11658;48.908;9.140;2023-03-01T14:12:11;7.40;99.90
22984;DHT22;11658;48.908;9.140;2023-03-01T14:14:54;7.30;99.90
22984;DHT22;11658;48.908;9.140;2023-03-01T14:17:33;7.30;99.90
22984;DHT22;11658;48.908;9.140;2023-03-01T14:22:42;7.30;99.90
22984;DHT22;11658;48.908;9.140;2023-03-01T14:25:47;7.10;99.90
22984;DHT22;11658;48.908;9.140;2023-03-01T14:28:28;7.30;99.90
22984;DHT22;11658;48.908;9.140;2023-03-01T14:30:57;7.30;99.90
22984;DHT22;11658;48.908;9.140;2023-03-01T14:33:30;7.60;99.90
22984;DHT22;11658;48.908;9.140;2023-03-01T14:36:04;7.50;99.90
22984;DHT22;11658;48.908;9.140;2023-03-01T14:38:41;7.50;99.90
22984;DHT22;11658;48.908;9.140;2023-03-01T14:41:24;7.60;99.90
22984;DHT22;11658;48.908;9.140;2023-03-01T14:46:25;7.80;99.90
22984;DHT22;11658;48.908;9.140;2023-03-01T14:48:53;7.90;99.90
22984;DHT22;11658;48.908;9.140;2023-03-01T14:51:19;7.80;99.90
22984;DHT22;11658;48.908;9.140;2023-03-01T14:53:45;7.50;99.90
22984;DHT22;11658;48.908;9.140;2023-03-01T14:56:15;7.40;99.90
22984;DHT22;11658;48.908;9.140;2023-03-01T14:58:45;7.80;99.90
22984;DHT22;11658;48.908;9.140;2023-03-01T15:01:15;7.60;99.90
22984;DHT22;11658;48.908;9.140;2023-03-01T15:03:46;7.30;99.90
22984;DHT22;11658;48.908;9.140;2023-03-01T15:06:19;7.40;99.90
22984;DHT22;11658;48.908;9.140;2023-03-01T15:08:48;7.40;99.90
22984;DHT22;11658;48.908;9.140;2023-03-01T15:11:31;7.50;99.90
22984;DHT22;11658;48.908;9.140;2023-03-01T15:13:58;7.40;99.90
22984;DHT22;11658;48.908;9.140;2023-03-01T15:16:27;7.30;99.90
22984;DHT22;11658;48.908;9.140;2023-03-01T15:19:01;7.30;99.90
22984;DHT22;11658;48.908;9.140;2023-03-01T15:21:36;7.20;99.90
22984;DHT22;11658;48.908;9.140;2023-03-01T15:26:49;7.20;99.90
22984;DHT22;11658;48.908;9.140;2023-03-01T15:29:20;7.20;99.90
22984;DHT22;11658;48.908;9.140;2023-03-01T15:32:36;7.20;99.90
22984;DHT22;11658;48.908;9.140;2023-03-01T15:34:43;7.20;99.90
22984;DHT22;11658;48.908;9.140;2023-03-01T15:37:44;7.00;99.90
22984;DHT22;11658;48.908;9.140;2023-03-01T15:40:23;7.10;99.90
22984;DHT22;11658;48.908;9.140;2023-03-01T15:42:57;7.00;99.90
22984;DHT22;11658;48.908;9.140;2023-03-01T15:45:25;6.90;99.90
22984;DHT22;11658;48.908;9.140;2023-03-01T15:47:57;6.90;99.90
22984;DHT22;11658;48.908;9.140;2023-03-01T15:50:29;6.90;99.90
22984;DHT22;11658;48.908;9.140;2023-03-01T15:52:56;6.90;99.90
22984;DHT22;11658;48.908;9.140;2023-03-01T15:55:25;6.90;99.90
22984;DHT22;11658;48.908;9.140;2023-03-01T15:58:03;6.80;99.90
22984;DHT22;11658;48.908;9.140;2023-03-01T16:00:30;6.80;99.90
22984;DHT22;11658;48.908;9.140;2023-03-01T16:02:56;6.60;99.90
22984;DHT22;11658;48.908;9.140;2023-03-01T16:07:49;6.50;99.90
22984;DHT22;11658;48.908;9.140;2023-03-01T16:10:15;6.30;99.90
22984;DHT22;11658;48.908;9.140;2023-03-01T16:12:41;6.50;99.90
22984;DHT22;11658;48.908;9.140;2023-03-01T16:15:24;6.40;99.90
22984;DHT22;11658;48.908;9.140;2023-03-01T16:17:50;6.40;99.90
22984;DHT22;11658;48.908;9.140;2023-03-01T16:20:17;6.30;99.90
22984;DHT22;11658;48.908;9.140;2023-03-01T16:22:44;6.40;99.90
22984;DHT22;11658;48.908;9.140;2023-03-01T16:25:11;6.30;99.90
22984;DHT22;11658;48.908;9.140;2023-03-01T16:27:37;6.30;99.90
22984;DHT22;11658;48.908;9.140;2023-03-01T16:30:05;6.30;99.90
22984;DHT22;11658;48.908;9.140;2023-03-01T16:32:31;6.20;99.90
22984;DHT22;11658;48.908;9.140;2023-03-01T16:34:56;6.20;99.90
22984;DHT22;11658;48.908;9.140;2023-03-01T16:37:22;6.10;99.90
22984;DHT22;11658;48.908;9.140;2023-03-01T16:39:47;6.00;99.90
22984;DHT22;11658;48.908;9.140;2023-03-01T16:42:16;5.90;99.90
22984;DHT22;11658;48.908;9.140;2023-03-01T16:44:42;5.90;99.90
22984;DHT22;11658;48.908;9.140;2023-03-01T16:47:07;5.80;99.90
22984;DHT22;11658;48.908;9.140;2023-03-01T16:49:33;5.80;99.90
22984;DHT22;11658;48.908;9.140;2023-03-01T16:51:58;5.70;99.90
22984;DHT22;11658;48.908;9.140;2023-03-01T16:54:24;5.70;99.90
22984;DHT22;11658;48.908;9.140;2023-03-01T16:56:50;5.60;99.90
22984;DHT22;11658;48.908;9.140;2023-03-01T16:59:16;5.50;99.90
22984;DHT22;11658;48.908;9.140;2023-03-01T17:01:43;5.40;99.90
22984;DHT22;11658;48.908;9.140;2023-03-01T17:04:12;5.30;99.90
22984;DHT22;11658;48.908;9.140;2023-03-01T17:06:38;5.20;99.90
22984;DHT22;11658;48.908;9.140;2023-03-01T17:09:03;5.10;99.90
22984;DHT22;11658;48.908;9.140;2023-03-01T17:11:30;5.10;99.90
22984;DHT22;11658;48.908;9.140;2023-03-01T17:13:56;5.10;99.90
22984;DHT22;11658;48.908;9.140;2023-03-01T17:16:22;5.10;99.90
22984;DHT22;11658;48.908;9.140;2023-03-01T17:18:48;5.00;99.90
22984;DHT22;11658;48.908;9.140;2023-03-01T17:21:14;5.30;99.90
22984;DHT22;11658;48.908;9.140;2023-03-01T17:23:43;4.80;99.90
22984;DHT22;11658;48.908;9.140;2023-03-01T17:26:09;4.70;99.90
22984;DHT22;11658;48.908;9.140;2023-03-01T17:28:36;4.70;99.90
22984;DHT22;11658;48.908;9.140;2023-03-01T17:31:03;4.70;99.90
22984;DHT22;11658;48.908;9.140;2023-03-01T17:33:29;4.60;99.90
22984;DHT22;11658;48.908;9.140;2023-03-01T17:35:56;4.60;99.90
22984;DHT22;11658;48.908;9.140;2023-03-01T17:38:22;4.60;99.90
22984;DHT22;11658;48.908;9.140;2023-03-01T17:40:48;4.50;99.90
22984;DHT22;11658;48.908;9.140;2023-03-01T17:43:15;4.40;99.90
22984;DHT22;11658;48.908;9.140;2023-03-01T17:45:42;4.30;99.90
22984;DHT22;11658;48.908;9.140;2023-03-01T17:48:12;4.20;99.90
22984;DHT22;11658;48.908;9.140;2023-03-01T17:50:38;4.20;99.90
22984;DHT22;11658;48.908;9.140;2023-03-01T17:53:05;4.20;99.90
22984;DHT22;11658;48.908;9.140;2023-03-01T17:55:40;4.10;99.90
22984;DHT22;11658;48.908;9.140;2023-03-01T17:58:08;4.00;99.90
22984;DHT22;11658;48.908;9.140;2023-03-01T18:00:34;3.90;99.90
22984;DHT22;11658;48.908;9.140;2023-03-01T18:02:59;3.90;99.90
22984;DHT22;11658;48.908;9.140;2023-03-01T18:05:30;3.70;99.90
22984;DHT22;11658;48.908;9.140;2023-03-01T18:07:55;3.60;99.90
22984;DHT22;11658;48.908;9.140;2023-03-01T18:10:21;3.60;99.90
22984;DHT22;11658;48.908;9.140;2023-03-01T18:12:47;3.40;99.90
22984;DHT22;11658;48.908;9.140;2023-03-01T18:15:14;3.40;99.90
22984;DHT22;11658;48.908;9.140;2023-03-01T18:17:40;3.30;99.90
22984;DHT22;11658;48.908;9.140;2023-03-01T18:20:06;3.30;99.90
22984;DHT22;11658;48.908;9.140;2023-03-01T18:22:32;3.30;99.90
22984;DHT22;11658;48.908;9.140;2023-03-01T18:25:02;3.30;99.90
22984;DHT22;11658;48.908;9.140;2023-03-01T18:27:28;3.50;99.90
22984;DHT22;11658;48.908;9.140;2023-03-01T18:29:53;3.10;99.90
22984;DHT22;11658;48.908;9.140;2023-03-01T18:32:20;3.00;99.90
22984;DHT22;11658;48.908;9.140;2023-03-01T18:34:46;3.00;99.90
22984;DHT22;11658;48.908;9.140;2023-03-01T18:37:12;3.00;99.90
22984;DHT22;11658;48.908;9.140;2023-03-01T18:39:38;3.00;99.90
22984;DHT22;11658;48.908;9.140;2023-03-01T18:42:06;3.00;99.90
22984;DHT22;11658;48.908;9.140;2023-03-01T18:44:31;2.90;99.90
22984;DHT22;11658;48.908;9.140;2023-03-01T18:46:57;2.90;99.90
22984;DHT22;11658;48.908;9.140;2023-03-01T18:49:23;3.00;99.90
22984;DHT22;11658;48.908;9.140;2023-03-01T18:51:50;2.90;99.90
22984;DHT22;11658;48.908;9.140;2023-03-01T18:54:16;2.90;99.90
22984;DHT22;11658;48.908;9.140;2023-03-01T18:56:42;2.80;99.90
22984;DHT22;11658;48.908;9.140;2023-03-01T18:59:07;2.80;99.90
22984;DHT22;11658;48.908;9.140;2023-03-01T19:01:33;2.70;99.90
22984;DHT22;11658;48.908;9.140;2023-03-01T19:03:59;2.70;99.90
22984;DHT22;11658;48.908;9.140;2023-03-01T19:06:30;2.70;99.90
22984;DHT22;11658;48.908;9.140;2023-03-01T19:08:57;2.70;99.90
22984;DHT22;11658;48.908;9.140;2023-03-01T19:11:23;2.60;99.90
22984;DHT22;11658;48.908;9.140;2023-03-01T19:13:52;2.60;99.90
22984;DHT22;11658;48.908;9.140;2023-03-01T19:16:22;2.50;99.90
22984;DHT22;11658;48.908;9.140;2023-03-01T19:18:48;2.50;99.90
22984;DHT22;11658;48.908;9.140;2023-03-01T19:21:18;2.40;99.90
22984;DHT22;11658;48.908;9.140;2023-03-01T19:23:44;2.40;99.90
22984;DHT22;11658;48.908;9.140;2023-03-01T19:26:13;2.30;99.90
22984;DHT22;11658;48.908;9.140;2023-03-01T19:28:39;2.30;99.90
22984;DHT22;11658;48.908;9.140;2023-03-01T19:31:07;2.20;99.90
22984;DHT22;11658;48.908;9.140;2023-03-01T19:33:33;2.20;99.90
22984;DHT22;11658;48.908;9.140;2023-03-01T19:36:00;2.10;99.90
22984;DHT22;11658;48.908;9.140;2023-03-01T19:38:26;2.10;99.90
22984;DHT22;11658;48.908;9.140;2023-03-01T19:40:53;2.10;99.90
22984;DHT22;11658;48.908;9.140;2023-03-01T19:43:19;2.00;99.90
22984;DHT22;11658;48.908;9.140;2023-03-01T19:45:50;2.00;99.90
22984;DHT22;11658;48.908;9.140;2023-03-01T19:48:15;2.00;99.90
22984;DHT22;11658;48.908;9.140;2023-03-01T19:50:44;2.00;99.90
22984;DHT22;11658;48.908;9.140;2023-03-01T19:53:11;1.90;99.90
22984;DHT22;11658;48.908;9.140;2023-03-01T19:55:37;1.90;99.90
22984;DHT22;11658;48.908;9.140;2023-03-01T19:58:04;1.80;99.90
22984;DHT22;11658;48.908;9.140;2023-03-01T20:00:33;1.80;99.90
22984;DHT22;11658;48.908;9.140;2023-03-01T20:02:59;1.80;99.90
22984;DHT22;11658;48.908;9.140;2023-03-01T20:05:25;1.80;99.90
22984;DHT22;11658;48.908;9.140;2023-03-01T20:07:53;1.70;99.90
22984;DHT22;11658;48.908;9.140;2023-03-01T20:10:19;1.60;99.90
22984;DHT22;11658;48.908;9.140;2023-03-01T20:12:44;1.60;99.90
22984;DHT22;11658;48.908;9.140;2023-03-01T20:15:10;1.50;99.90
22984;DHT22;11658;48.908;9.140;2023-03-01T20:17:36;1.50;99.90
22984;DHT22;11658;48.908;9.140;2023-03-01T20:20:01;1.50;99.90
22984;DHT22;11658;48.908;9.140;2023-03-01T20:22:27;1.50;99.90
22984;DHT22;11658;48.908;9.140;2023-03-01T20:24:53;1.50;99.90
22984;DHT22;11658;48.908;9.140;2023-03-01T20:27:19;1.60;99.90
22984;DHT22;11658;48.908;9.140;2023-03-01T20:29:44;1.60;99.90
22984;DHT22;11658;48.908;9.140;2023-03-01T20:32:10;1.70;99.90
22984;DHT22;11658;48.908;9.140;2023-03-01T20:34:36;1.70;99.90
22984;DHT22;11658;48.908;9.140;2023-03-01T20:37:02;1.80;99.90
22984;DHT22;11658;48.908;9.140;2023-03-01T20:39:28;1.80;99.90
22984;DHT22;11658;48.908;9.140;2023-03-01T20:41:53;1.80;99.90
22984;DHT22;11658;48.908;9.140;2023-03-01T20:44:19;1.80;99.90
22984;DHT22;11658;48.908;9.140;2023-03-01T20:46:45;1.80;99.90
22984;DHT22;11658;48.908;9.140;2023-03-01T20:49:10;1.90;99.90
22984;DHT22;11658;48.908;9.140;2023-03-01T20:51:36;1.90;99.90
22984;DHT22;11658;48.908;9.140;2023-03-01T20:54:02;1.90;99.90
22984;DHT22;11658;48.908;9.140;2023-03-01T20:56:27;1.80;99.90
22984;DHT22;11658;48.908;9.140;2023-03-01T20:58:54;1.70;99.90
22984;DHT22;11658;48.908;9.140;2023-03-01T21:01:23;1.60;99.90
22984;DHT22;11658;48.908;9.140;2023-03-01T21:03:49;1.60;99.90
22984;DHT22;11658;48.908;9.140;2023-03-01T21:06:15;1.50;99.90
22984;DHT22;11658;48.908;9.140;2023-03-01T21:08:41;1.40;99.90
22984;DHT22;11658;48.908;9.140;2023-03-01T21:11:06;1.40;99.90
22984;DHT22;11658;48.908;9.140;2023-03-01T21:13:33;1.40;99.90
22984;DHT22;11658;48.908;9.140;2023-03-01T21:16:11;1.40;99.90
22984;DHT22;11658;48.908;9.140;2023-03-01T21:18:40;1.30;99.90
22984;DHT22;11658;48.908;9.140;2023-03-01T21:21:09;1.20;99.90
22984;DHT22;11658;48.908;9.140;2023-03-01T21:23:36;1.20;99.90
22984;DHT22;11658;48.908;9.140;2023-03-01T21:26:14;1.20;99.90
22984;DHT22;11658;48.908;9.140;2023-03-01T21:28:41;1.30;99.90
22984;DHT22;11658;48.908;9.140;2023-03-01T21:31:13;1.20;99.90